createdAt,value
2023-04-24T00:00:59.907Z,9.80
2023-04-24T00:06:01.913Z,9.80
2023-04-24T00:11:04.137Z,11.25
2023-04-24T00:16:06.195Z,9.82
2023-04-24T00:21:08.048Z,10.93
2023-04-24T00:26:09.451Z,9.93
2023-04-24T00:31:10.924Z,10.18
2023-04-24T00:36:12.257Z,11.57
2023-04-24T00:41:13.858Z,12.85
2023-04-24T00:46:15.609Z,12.00
2023-04-24T00:51:17.048Z,12.85
2023-04-24T00:56:19.323Z,12.38
2023-04-24T01:01:21.925Z,12.43
2023-04-24T01:06:23.425Z,10.80
2023-04-24T01:11:25.527Z,11.30
2023-04-24T01:16:27.067Z,12.07
2023-04-24T01:21:31.011Z,12.98
2023-04-24T01:26:32.526Z,11.30
2023-04-24T01:31:34.267Z,13.40
2023-04-24T01:36:36.059Z,11.63
2023-04-24T01:41:37.897Z,12.18
2023-04-24T01:46:39.351Z,11.60
2023-04-24T01:51:40.707Z,11.15
2023-04-24T01:56:43.517Z,11.18
2023-04-24T02:01:44.910Z,10.73
2023-04-24T02:06:46.312Z,10.07
2023-04-24T02:11:47.655Z,10.57
2023-04-24T02:16:49.161Z,10.25
2023-04-24T02:21:51.377Z,10.25
2023-04-24T02:26:52.770Z,10.48
2023-04-24T02:31:54.188Z,11.48
2023-04-24T02:36:55.881Z,10.70
2023-04-24T02:41:57.243Z,9.95
2023-04-24T02:46:58.562Z,10.48
2023-04-24T02:51:59.875Z,11.02
2023-04-24T02:57:02.242Z,10.30
2023-04-24T03:02:03.730Z,10.23
2023-04-24T03:07:05.528Z,11.93
2023-04-24T03:12:07.026Z,9.20
2023-04-24T03:17:08.364Z,10.93
2023-04-24T03:22:10.259Z,8.80
2023-04-24T03:27:11.625Z,9.52
2023-04-24T03:32:12.971Z,7.88
2023-04-24T03:37:14.346Z,7.50
2023-04-24T03:42:16.191Z,7.38
2023-04-24T03:47:17.561Z,5.63
2023-04-24T03:52:18.970Z,5.35
2023-04-24T03:57:20.314Z,5.47
2023-04-24T04:02:21.685Z,4.85
2023-04-24T04:07:23.136Z,3.92
2023-04-24T04:12:24.531Z,3.80
2023-04-24T04:17:26.110Z,4.45
2023-04-24T04:22:27.498Z,4.35
2023-04-24T04:27:29.976Z,6.28
2023-04-24T04:32:34.922Z,4.97
2023-04-24T04:37:36.507Z,4.82
2023-04-24T04:42:41.135Z,5.25
2023-04-24T04:47:43.299Z,5.10
2023-04-24T04:52:44.660Z,5.13
2023-04-24T04:57:46.278Z,7.82
2023-04-24T05:02:47.756Z,5.65
2023-04-24T05:07:49.235Z,4.95
2023-04-24T05:12:50.649Z,4.85
2023-04-24T05:17:52.235Z,5.13
2023-04-24T05:22:53.594Z,5.75
2023-04-24T05:27:55.025Z,5.85
2023-04-24T05:32:56.403Z,4.70
2023-04-24T05:37:58.058Z,5.72
2023-04-24T05:42:59.373Z,5.20
2023-04-24T05:48:00.732Z,6.72
2023-04-24T05:53:05.567Z,7.25
2023-04-24T05:58:07.072Z,5.85
2023-04-24T06:03:08.931Z,7.90
2023-04-24T06:08:10.820Z,5.65
2023-04-24T06:13:12.226Z,5.63
2023-04-24T06:18:13.697Z,5.25
2023-04-24T06:23:15.107Z,5.38
2023-04-24T06:28:16.468Z,5.30
2023-04-24T06:33:21.268Z,4.88
2023-04-24T06:38:23.710Z,7.25
2023-04-24T06:43:25.117Z,4.95
2023-04-24T06:48:27.061Z,4.30
2023-04-24T06:53:28.663Z,4.68
2023-04-24T06:58:31.361Z,6.07
2023-04-24T07:03:32.980Z,7.10
2023-04-24T07:08:34.593Z,4.30
2023-04-24T07:13:36.494Z,4.38
2023-04-24T07:18:38.407Z,6.07
2023-04-24T07:23:39.845Z,5.45
2023-04-24T07:28:41.557Z,7.60
2023-04-24T07:33:42.951Z,4.32
2023-04-24T07:38:44.376Z,7.20
2023-04-24T07:43:45.723Z,11.63
2023-04-24T07:48:50.028Z,4.40
2023-04-24T07:53:57.175Z,4.65
2023-04-24T07:58:58.671Z,5.65
2023-04-24T08:04:00.273Z,8.18
2023-04-24T08:09:01.796Z,7.93
2023-04-24T08:14:03.124Z,5.15
2023-04-24T08:19:04.574Z,6.93
2023-04-24T08:24:08.870Z,5.13
2023-04-24T08:29:10.330Z,5.63
2023-04-24T08:34:11.699Z,5.20
2023-04-24T08:39:13.254Z,5.78
2023-04-24T08:44:16.704Z,5.10
2023-04-24T08:49:18.558Z,5.27
2023-04-24T08:54:20.268Z,5.03
2023-04-24T08:59:22.250Z,5.72
2023-04-24T09:04:25.820Z,5.60
2023-04-24T09:09:30.748Z,5.18
2023-04-24T09:19:34.262Z,5.15
2023-04-24T09:24:35.992Z,5.47
2023-04-24T09:29:37.376Z,7.50
2023-04-24T09:34:38.703Z,6.10
2023-04-24T09:39:40.829Z,6.78
2023-04-24T09:44:42.529Z,7.20
2023-04-24T09:49:45.004Z,7.03
2023-04-24T09:54:53.460Z,7.63
2023-04-24T09:59:54.882Z,7.78
2023-04-24T10:04:57.649Z,8.57
2023-04-24T10:09:59.517Z,7.85
2023-04-24T10:15:02.722Z,9.93
2023-04-24T10:20:04.866Z,8.32
2023-04-24T10:25:06.760Z,8.02
2023-04-24T10:30:08.728Z,9.30
2023-04-24T10:35:11.182Z,6.72
2023-04-24T10:40:13.129Z,7.20
2023-04-24T10:45:22.735Z,7.43
2023-04-24T10:50:24.279Z,6.93
2023-04-24T10:55:45.788Z,7.05
2023-04-24T11:00:55.897Z,7.55
2023-04-24T11:05:59.066Z,8.18
2023-04-24T11:11:04.872Z,8.32
2023-04-24T11:16:25.380Z,8.65
2023-04-24T11:21:32.345Z,7.35
2023-04-24T11:26:37.731Z,8.00
2023-04-24T11:31:40.375Z,7.50
2023-04-24T11:36:45.949Z,7.07
2023-04-24T11:41:47.803Z,7.47
2023-04-24T11:46:49.187Z,10.30
2023-04-24T11:51:53.486Z,7.93
2023-04-24T11:56:57.011Z,8.20
2023-04-24T12:01:58.372Z,6.82
2023-04-24T12:07:00.134Z,7.88
2023-04-24T12:12:02.055Z,7.95
2023-04-24T12:17:04.198Z,7.10
2023-04-24T12:22:06.975Z,10.15
2023-04-24T12:27:10.025Z,7.78
2023-04-24T12:32:17.705Z,7.70
2023-04-24T12:37:19.249Z,7.57
2023-04-24T12:42:26.895Z,7.40
2023-04-24T12:47:29.147Z,7.80
2023-04-24T12:52:31.045Z,7.57
2023-04-24T12:57:32.542Z,7.28
2023-04-24T13:02:34.975Z,8.95
2023-04-24T13:07:36.758Z,9.43
2023-04-24T13:12:38.435Z,8.43
2023-04-24T13:17:39.853Z,8.27
2023-04-24T13:22:41.267Z,8.50
2023-04-24T13:27:42.592Z,10.23
2023-04-24T13:32:44.103Z,10.38
2023-04-24T13:37:45.808Z,7.85
2023-04-24T13:42:47.242Z,7.68
2023-04-24T13:47:50.247Z,8.75
2023-04-24T13:52:53.421Z,7.70
2023-04-24T13:57:56.117Z,8.80
2023-04-24T14:02:57.791Z,9.95
2023-04-24T14:07:59.294Z,10.70
2023-04-24T14:13:01.059Z,10.48
2023-04-24T14:18:04.938Z,9.65
2023-04-24T14:23:07.563Z,4.90
2023-04-24T14:28:10.065Z,5.50
2023-04-24T14:33:11.685Z,4.97
2023-04-24T14:38:13.046Z,3.33
2023-04-24T14:43:14.434Z,4.03
2023-04-24T14:48:17.439Z,2.45
2023-04-24T14:53:19.599Z,1.75
2023-04-24T14:58:20.969Z,1.42
2023-04-24T15:03:23.118Z,1.25
2023-04-24T15:08:24.973Z,1.95
2023-04-24T15:13:26.814Z,3.17
2023-04-24T15:18:29.761Z,5.47
2023-04-24T15:23:31.104Z,10.27
2023-04-24T15:28:32.650Z,9.05
2023-04-24T15:33:34.101Z,9.80
2023-04-24T15:38:35.553Z,9.10
2023-04-24T15:43:37.031Z,8.05
2023-04-24T15:48:41.336Z,10.43
2023-04-24T15:53:42.752Z,6.30
2023-04-24T15:58:44.255Z,8.05
2023-04-24T16:03:46.593Z,7.60
2023-04-24T16:08:48.315Z,10.40
2023-04-24T16:13:49.977Z,8.65
2023-04-24T16:18:53.965Z,9.20
2023-04-24T16:23:55.354Z,14.57
2023-04-24T16:28:56.852Z,11.65
2023-04-24T16:33:58.251Z,14.70
2023-04-24T16:39:01.093Z,20.65
2023-04-24T16:44:02.499Z,13.60
2023-04-24T16:49:03.882Z,16.85
2023-04-24T16:54:05.259Z,24.20
2023-04-24T16:59:08.091Z,13.90
2023-04-24T17:04:09.550Z,15.75
2023-04-24T17:09:12.991Z,14.07
2023-04-24T17:14:15.453Z,13.13
2023-04-24T17:19:16.860Z,15.43
2023-04-24T17:24:18.224Z,9.60
2023-04-24T17:29:19.605Z,12.07
2023-04-24T17:34:20.981Z,13.53
2023-04-24T17:39:22.407Z,10.57
2023-04-24T17:44:23.784Z,12.40
2023-04-24T17:49:25.158Z,12.07
2023-04-24T17:54:26.522Z,11.10
2023-04-24T17:59:28.001Z,12.60
2023-04-24T18:04:29.495Z,11.70
2023-04-24T18:09:30.894Z,10.03
2023-04-24T18:14:32.252Z,11.33
2023-04-24T18:19:33.646Z,14.67
2023-04-24T18:24:35.021Z,10.97
2023-04-24T18:29:37.624Z,11.13
2023-04-24T18:34:39.037Z,10.83
2023-04-24T18:39:40.590Z,17.87
2023-04-24T18:44:42.796Z,15.53
2023-04-24T18:49:44.272Z,15.90
2023-04-24T18:54:45.676Z,13.57
2023-04-24T18:59:47.082Z,15.27
2023-04-24T19:04:48.454Z,17.77
2023-04-24T19:09:49.862Z,11.90
2023-04-24T19:14:52.049Z,11.70
2023-04-24T19:19:53.457Z,17.80
2023-04-24T19:24:54.909Z,10.87
2023-04-24T19:29:56.310Z,16.17
2023-04-24T19:34:57.785Z,10.10
2023-04-24T19:39:59.208Z,10.32
2023-04-24T19:45:01.020Z,12.52
2023-04-24T19:50:02.383Z,13.73
2023-04-24T19:55:04.093Z,9.30
2023-04-24T20:00:05.866Z,12.33
2023-04-24T20:05:07.648Z,9.27
2023-04-24T20:10:09.371Z,8.33
2023-04-24T20:15:10.990Z,10.23
2023-04-24T20:20:12.554Z,7.50
2023-04-24T20:25:14.048Z,7.57
2023-04-24T20:30:15.939Z,8.70
2023-04-24T20:35:17.364Z,6.80
2023-04-24T20:40:19.485Z,13.55
2023-04-24T20:45:21.283Z,9.45
2023-04-24T20:50:22.719Z,7.35
2023-04-24T20:55:24.143Z,11.75
2023-04-24T21:00:27.157Z,9.73
2023-04-24T21:05:28.667Z,13.93
2023-04-24T21:10:30.053Z,9.27
2023-04-24T21:15:31.551Z,11.93
2023-04-24T21:20:32.856Z,10.27
2023-04-24T21:25:37.464Z,11.68
2023-04-24T21:35:40.395Z,11.38
2023-04-24T21:40:41.830Z,9.90
2023-04-24T21:45:43.411Z,12.93
2023-04-24T21:50:44.771Z,18.08
2023-04-24T21:55:46.285Z,17.13
2023-04-24T22:00:47.634Z,20.52
2023-04-24T22:05:48.957Z,18.42
2023-04-24T22:10:51.387Z,23.50
2023-04-24T22:15:52.765Z,16.40
2023-04-24T22:20:54.257Z,22.60
2023-04-24T22:25:56.517Z,22.23
2023-04-24T22:30:58.332Z,17.20
2023-04-24T22:35:59.718Z,13.53
2023-04-24T22:41:01.082Z,14.17
2023-04-24T22:46:02.665Z,10.57
2023-04-24T22:51:04.205Z,9.37
2023-04-24T22:56:05.776Z,11.00
2023-04-24T23:01:07.138Z,8.57
2023-04-24T23:06:09.057Z,9.87
2023-04-24T23:11:11.317Z,15.10
2023-04-24T23:16:12.713Z,19.53
2023-04-24T23:21:14.111Z,9.77
2023-04-24T23:26:15.481Z,13.10
2023-04-24T23:31:16.916Z,15.47
2023-04-24T23:36:18.360Z,16.90
2023-04-24T23:41:19.740Z,21.43
2023-04-24T23:46:21.462Z,17.83
2023-04-24T23:51:23.103Z,13.37
2023-04-24T23:56:26.658Z,15.73
